sensor_id;sensor_type;location;lat;lon;timestamp;pressure;altitude;pressure_sealevel;temperature;humidity
38716;BME280;24833;49.324;8.694;2022-12-07T00:01:36;99975.34;;;3.26;99.49
38716;BME280;24833;49.324;8.694;2022-12-07T00:04:07;99977.16;;;3.25;99.38
38716;BME280;24833;49.324;8.694;2022-12-07T00:06:40;99973.81;;;3.23;99.51
38716;BME280;24833;49.324;8.694;2022-12-07T00:09:14;99971.34;;;3.22;99.71
38716;BME280;24833;49.324;8.694;2022-12-07T00:11:42;99971.34;;;3.22;99.89
38716;BME280;24833;49.324;8.694;2022-12-07T00:14:14;99969.66;;;3.21;99.86
38716;BME280;24833;49.324;8.694;2022-12-07T00:16:42;99964.38;;;3.21;99.85
38716;BME280;24833;49.324;8.694;2022-12-07T00:19:12;99960.91;;;3.20;99.67
38716;BME280;24833;49.324;8.694;2022-12-07T00:21:39;99963.69;;;3.19;99.93
38716;BME280;24833;49.324;8.694;2022-12-07T00:24:07;99961.06;;;3.19;99.75
38716;BME280;24833;49.324;8.694;2022-12-07T00:26:37;99957.75;;;3.17;99.54
38716;BME280;24833;49.324;8.694;2022-12-07T00:29:19;99959.53;;;3.16;99.56
38716;BME280;24833;49.324;8.694;2022-12-07T00:31:47;99952.63;;;3.15;99.61
38716;BME280;24833;49.324;8.694;2022-12-07T00:34:20;99953.72;;;3.13;99.62
38716;BME280;24833;49.324;8.694;2022-12-07T00:36:48;99937.06;;;3.12;99.94
38716;BME280;24833;49.324;8.694;2022-12-07T00:39:16;99934.56;;;3.11;100.00
38716;BME280;24833;49.324;8.694;2022-12-07T00:41:43;99930.28;;;3.10;100.00
38716;BME280;24833;49.324;8.694;2022-12-07T00:44:10;99939.84;;;3.11;100.00
38716;BME280;24833;49.324;8.694;2022-12-07T00:46:37;99940.81;;;3.10;99.96
38716;BME280;24833;49.324;8.694;2022-12-07T00:49:04;99942.47;;;3.11;100.00
38716;BME280;24833;49.324;8.694;2022-12-07T00:51:31;99944.44;;;3.09;99.97
38716;BME280;24833;49.324;8.694;2022-12-07T00:53:58;99936.53;;;3.09;99.78
38716;BME280;24833;49.324;8.694;2022-12-07T00:56:28;99936.53;;;3.09;99.90
38716;BME280;24833;49.324;8.694;2022-12-07T00:58:57;99925.16;;;3.08;99.80
38716;BME280;24833;49.324;8.694;2022-12-07T01:01:27;99934.00;;;3.07;99.54
38716;BME280;24833;49.324;8.694;2022-12-07T01:03:55;99928.72;;;3.07;99.94
38716;BME280;24833;49.324;8.694;2022-12-07T01:06:25;99930.53;;;3.07;99.81
38716;BME280;24833;49.324;8.694;2022-12-07T01:08:53;99930.53;;;3.07;99.75
38716;BME280;24833;49.324;8.694;2022-12-07T01:11:24;99927.91;;;3.07;99.32
38716;BME280;24833;49.324;8.694;2022-12-07T01:13:54;99923.59;;;3.06;99.81
38716;BME280;24833;49.324;8.694;2022-12-07T01:16:24;99936.78;;;3.06;99.73
38716;BME280;24833;49.324;8.694;2022-12-07T01:18:54;99942.06;;;3.06;99.66
38716;BME280;24833;49.324;8.694;2022-12-07T01:21:31;99944.72;;;3.06;99.44
38716;BME280;24833;49.324;8.694;2022-12-07T01:24:04;99949.16;;;3.05;99.33
38716;BME280;24833;49.324;8.694;2022-12-07T01:26:32;99940.41;;;3.05;99.80
38716;BME280;24833;49.324;8.694;2022-12-07T01:28:59;99942.22;;;3.04;99.61
38716;BME280;24833;49.324;8.694;2022-12-07T01:31:29;99948.31;;;3.05;99.68
38716;BME280;24833;49.324;8.694;2022-12-07T01:33:59;99953.59;;;3.05;99.67
38716;BME280;24833;49.324;8.694;2022-12-07T01:36:32;99949.31;;;3.04;99.67
38716;BME280;24833;49.324;8.694;2022-12-07T01:39:06;99953.59;;;3.05;99.86
38716;BME280;24833;49.324;8.694;2022-12-07T01:41:38;99958.03;;;3.04;99.77
38716;BME280;24833;49.324;8.694;2022-12-07T01:44:17;99950.28;;;3.03;99.69
38716;BME280;24833;49.324;8.694;2022-12-07T01:46:53;99954.56;;;3.04;99.48
38716;BME280;24833;49.324;8.694;2022-12-07T01:49:39;99945.84;;;3.03;99.52
38716;BME280;24833;49.324;8.694;2022-12-07T01:52:26;99945.00;;;3.03;99.40
38716;BME280;24833;49.324;8.694;2022-12-07T01:55:01;99935.28;;;3.03;99.82
38716;BME280;24833;49.324;8.694;2022-12-07T01:57:32;99937.09;;;3.03;99.64
38716;BME280;24833;49.324;8.694;2022-12-07T02:00:02;99936.38;;;3.00;99.82
38716;BME280;24833;49.324;8.694;2022-12-07T02:03:05;99931.97;;;3.01;99.36
38716;BME280;24833;49.324;8.694;2022-12-07T02:05:35;99925.84;;;3.00;99.76
38716;BME280;24833;49.324;8.694;2022-12-07T02:08:04;99918.06;;;2.99;100.00
38716;BME280;24833;49.324;8.694;2022-12-07T02:10:32;99918.06;;;2.99;100.00
38716;BME280;24833;49.324;8.694;2022-12-07T02:13:14;99918.06;;;2.99;99.93
38716;BME280;24833;49.324;8.694;2022-12-07T02:18:53;99924.47;;;2.96;99.78
38716;BME280;24833;49.324;8.694;2022-12-07T02:21:50;99929.75;;;2.96;99.67
38716;BME280;24833;49.324;8.694;2022-12-07T02:27:47;99929.75;;;2.96;99.57
38716;BME280;24833;49.324;8.694;2022-12-07T02:30:21;99925.47;;;2.95;100.00
38716;BME280;24833;49.324;8.694;2022-12-07T02:33:00;99921.16;;;2.94;99.95
38716;BME280;24833;49.324;8.694;2022-12-07T02:35:39;99918.53;;;2.94;99.71
38716;BME280;24833;49.324;8.694;2022-12-07T02:38:31;99916.84;;;2.93;99.97
38716;BME280;24833;49.324;8.694;2022-12-07T02:41:12;99914.19;;;2.93;100.00
38716;BME280;24833;49.324;8.694;2022-12-07T02:43:47;99920.44;;;2.92;100.00
38716;BME280;24833;49.324;8.694;2022-12-07T02:46:26;99916.97;;;2.92;99.78
38716;BME280;24833;49.324;8.694;2022-12-07T02:48:55;99906.59;;;2.90;100.00
38716;BME280;24833;49.324;8.694;2022-12-07T02:51:23;99911.88;;;2.90;100.00
38716;BME280;24833;49.324;8.694;2022-12-07T02:53:50;99911.19;;;2.88;100.00
38716;BME280;24833;49.324;8.694;2022-12-07T02:56:49;99901.59;;;2.87;99.93
38716;BME280;24833;49.324;8.694;2022-12-07T03:05:53;99880.22;;;2.81;100.00
38716;BME280;24833;49.324;8.694;2022-12-07T03:08:52;99900.50;;;2.80;100.00
38716;BME280;24833;49.324;8.694;2022-12-07T03:11:50;99907.56;;;2.80;100.00
38716;BME280;24833;49.324;8.694;2022-12-07T03:14:25;99910.22;;;2.80;100.00
38716;BME280;24833;49.324;8.694;2022-12-07T03:17:12;99913.69;;;2.80;100.00
38716;BME280;24833;49.324;8.694;2022-12-07T03:19:41;99918.13;;;2.80;100.00
38716;BME280;24833;49.324;8.694;2022-12-07T03:22:13;99911.19;;;2.79;99.83
38716;BME280;24833;49.324;8.694;2022-12-07T03:24:54;99913.00;;;2.78;99.92
38716;BME280;24833;49.324;8.694;2022-12-07T03:27:27;99913.16;;;2.77;99.73
38716;BME280;24833;49.324;8.694;2022-12-07T03:30:20;99914.94;;;2.76;99.59
38716;BME280;24833;49.324;8.694;2022-12-07T03:33:03;99909.69;;;2.76;99.58
38716;BME280;24833;49.324;8.694;2022-12-07T03:35:51;99911.50;;;2.76;99.64
38716;BME280;24833;49.324;8.694;2022-12-07T03:38:29;99908.97;;;2.74;99.70
38716;BME280;24833;49.324;8.694;2022-12-07T03:41:24;99905.38;;;2.75;99.85
38716;BME280;24833;49.324;8.694;2022-12-07T03:43:54;99897.59;;;2.73;99.78
38716;BME280;24833;49.324;8.694;2022-12-07T03:46:44;99892.47;;;2.72;100.00
38716;BME280;24833;49.324;8.694;2022-12-07T03:49:25;99888.19;;;2.71;100.00
38716;BME280;24833;49.324;8.694;2022-12-07T03:52:03;99892.47;;;2.72;100.00
38716;BME280;24833;49.324;8.694;2022-12-07T03:54:39;99890.00;;;2.70;100.00
38716;BME280;24833;49.324;8.694;2022-12-07T03:57:07;99887.50;;;2.69;100.00
38716;BME280;24833;49.324;8.694;2022-12-07T03:59:36;99886.53;;;2.70;100.00
38716;BME280;24833;49.324;8.694;2022-12-07T04:02:06;99888.19;;;2.71;100.00
38716;BME280;24833;49.324;8.694;2022-12-07T04:04:34;99888.19;;;2.71;100.00
38716;BME280;24833;49.324;8.694;2022-12-07T04:07:01;99890.81;;;2.71;100.00
38716;BME280;24833;49.324;8.694;2022-12-07T04:09:28;99888.19;;;2.71;100.00
38716;BME280;24833;49.324;8.694;2022-12-07T04:11:56;99882.91;;;2.71;100.00
38716;BME280;24833;49.324;8.694;2022-12-07T04:14:22;99891.78;;;2.70;100.00
38716;BME280;24833;49.324;8.694;2022-12-07T04:16:55;99894.44;;;2.70;100.00
38716;BME280;24833;49.324;8.694;2022-12-07T04:19:29;99893.44;;;2.71;100.00
38716;BME280;24833;49.324;8.694;2022-12-07T04:21:58;99884.88;;;2.69;100.00
38716;BME280;24833;49.324;8.694;2022-12-07T04:24:27;99879.59;;;2.69;100.00
38716;BME280;24833;49.324;8.694;2022-12-07T04:26:54;99882.22;;;2.69;100.00
38716;BME280;24833;49.324;8.694;2022-12-07T04:29:21;99878.75;;;2.68;100.00
38716;BME280;24833;49.324;8.694;2022-12-07T04:31:49;99882.22;;;2.69;100.00
38716;BME280;24833;49.324;8.694;2022-12-07T04:34:17;99871.53;;;2.70;100.00
38716;BME280;24833;49.324;8.694;2022-12-07T04:36:45;99871.69;;;2.69;100.00
38716;BME280;24833;49.324;8.694;2022-12-07T04:39:24;99875.16;;;2.69;100.00
38716;BME280;24833;49.324;8.694;2022-12-07T04:41:52;99871.69;;;2.69;100.00
38716;BME280;24833;49.324;8.694;2022-12-07T04:44:20;99875.28;;;2.68;100.00
38716;BME280;24833;49.324;8.694;2022-12-07T04:46:48;99867.38;;;2.68;100.00
38716;BME280;24833;49.324;8.694;2022-12-07T04:49:16;99881.25;;;2.70;100.00
38716;BME280;24833;49.324;8.694;2022-12-07T04:51:44;99864.59;;;2.69;100.00
38716;BME280;24833;49.324;8.694;2022-12-07T04:54:12;99868.06;;;2.70;100.00
38716;BME280;24833;49.324;8.694;2022-12-07T04:56:40;99878.63;;;2.70;100.00
38716;BME280;24833;49.324;8.694;2022-12-07T04:59:09;99870.69;;;2.70;100.00
38716;BME280;24833;49.324;8.694;2022-12-07T05:01:37;99865.44;;;2.70;100.00
38716;BME280;24833;49.324;8.694;2022-12-07T05:04:04;99863.78;;;2.69;100.00
38716;BME280;24833;49.324;8.694;2022-12-07T05:06:32;99868.22;;;2.68;100.00
38716;BME280;24833;49.324;8.694;2022-12-07T05:08:58;99881.25;;;2.70;100.00
38716;BME280;24833;49.324;8.694;2022-12-07T05:11:26;99879.59;;;2.69;100.00
38716;BME280;24833;49.324;8.694;2022-12-07T05:14:14;99872.50;;;2.69;100.00
38716;BME280;24833;49.324;8.694;2022-12-07T05:16:43;99872.66;;;2.68;100.00
38716;BME280;24833;49.324;8.694;2022-12-07T05:19:10;99874.44;;;2.67;100.00
38716;BME280;24833;49.324;8.694;2022-12-07T05:21:39;99872.66;;;2.68;100.00
38716;BME280;24833;49.324;8.694;2022-12-07T05:24:08;99877.06;;;2.67;100.00
38716;BME280;24833;49.324;8.694;2022-12-07T05:26:36;99877.94;;;2.68;100.00
38716;BME280;24833;49.324;8.694;2022-12-07T05:29:04;99885.84;;;2.68;100.00
38716;BME280;24833;49.324;8.694;2022-12-07T05:31:31;99888.47;;;2.68;100.00
38716;BME280;24833;49.324;8.694;2022-12-07T05:33:58;99888.47;;;2.68;100.00
38716;BME280;24833;49.324;8.694;2022-12-07T05:36:25;99883.22;;;2.68;100.00
38716;BME280;24833;49.324;8.694;2022-12-07T05:38:55;99877.94;;;2.68;100.00
38716;BME280;24833;49.324;8.694;2022-12-07T05:41:22;99877.22;;;2.66;100.00
38716;BME280;24833;49.324;8.694;2022-12-07T05:44:07;99872.94;;;2.65;100.00
38716;BME280;24833;49.324;8.694;2022-12-07T05:46:34;99872.09;;;2.64;100.00
38716;BME280;24833;49.324;8.694;2022-12-07T05:49:02;99871.28;;;2.64;100.00
38716;BME280;24833;49.324;8.694;2022-12-07T05:51:29;99874.06;;;2.62;100.00
38716;BME280;24833;49.324;8.694;2022-12-07T05:53:56;99870.72;;;2.60;100.00
38716;BME280;24833;49.324;8.694;2022-12-07T05:56:23;99866.28;;;2.61;100.00
38716;BME280;24833;49.324;8.694;2022-12-07T05:58:51;99869.06;;;2.59;100.00
38716;BME280;24833;49.324;8.694;2022-12-07T06:01:36;99867.41;;;2.58;100.00
38716;BME280;24833;49.324;8.694;2022-12-07T06:04:03;99863.94;;;2.58;100.00
38716;BME280;24833;49.324;8.694;2022-12-07T06:06:30;99867.41;;;2.58;100.00
38716;BME280;24833;49.324;8.694;2022-12-07T06:08:57;99869.88;;;2.60;100.00
38716;BME280;24833;49.324;8.694;2022-12-07T06:11:24;99869.88;;;2.60;100.00
38716;BME280;24833;49.324;8.694;2022-12-07T06:14:10;99864.59;;;2.60;100.00
38716;BME280;24833;49.324;8.694;2022-12-07T06:16:37;99868.06;;;2.60;100.00
38716;BME280;24833;49.324;8.694;2022-12-07T06:19:04;99869.88;;;2.60;100.00
38716;BME280;24833;49.324;8.694;2022-12-07T06:21:31;99862.81;;;2.60;100.00
38716;BME280;24833;49.324;8.694;2022-12-07T06:23:58;99873.34;;;2.60;100.00
38716;BME280;24833;49.324;8.694;2022-12-07T06:26:25;99873.50;;;2.59;100.00
38716;BME280;24833;49.324;8.694;2022-12-07T06:28:52;99867.25;;;2.60;100.00
38716;BME280;24833;49.324;8.694;2022-12-07T06:31:20;99879.47;;;2.61;100.00
38716;BME280;24833;49.324;8.694;2022-12-07T06:33:47;99882.13;;;2.61;100.00
38716;BME280;24833;49.324;8.694;2022-12-07T06:36:14;99884.59;;;2.62;100.00
38716;BME280;24833;49.324;8.694;2022-12-07T06:38:41;99879.31;;;2.62;100.00
38716;BME280;24833;49.324;8.694;2022-12-07T06:41:08;99880.16;;;2.63;100.00
38716;BME280;24833;49.324;8.694;2022-12-07T06:43:35;99882.78;;;2.63;100.00
38716;BME280;24833;49.324;8.694;2022-12-07T06:46:02;99880.97;;;2.63;100.00
38716;BME280;24833;49.324;8.694;2022-12-07T06:48:29;99882.78;;;2.63;100.00
38716;BME280;24833;49.324;8.694;2022-12-07T06:50:56;99889.72;;;2.64;100.00
38716;BME280;24833;49.324;8.694;2022-12-07T06:53:23;99876.53;;;2.64;100.00
38716;BME280;24833;49.324;8.694;2022-12-07T06:55:50;99879.03;;;2.65;100.00
38716;BME280;24833;49.324;8.694;2022-12-07T06:58:18;99880.84;;;2.65;100.00
38716;BME280;24833;49.324;8.694;2022-12-07T07:00:45;99883.47;;;2.65;100.00
38716;BME280;24833;49.324;8.694;2022-12-07T07:03:14;99880.84;;;2.65;100.00
38716;BME280;24833;49.324;8.694;2022-12-07T07:05:42;99887.75;;;2.66;100.00
38716;BME280;24833;49.324;8.694;2022-12-07T07:08:10;99891.22;;;2.66;100.00
38716;BME280;24833;49.324;8.694;2022-12-07T07:10:52;99885.28;;;2.64;100.00
38716;BME280;24833;49.324;8.694;2022-12-07T07:13:19;99889.41;;;2.67;100.00
38716;BME280;24833;49.324;8.694;2022-12-07T07:15:46;99887.75;;;2.66;100.00
38716;BME280;24833;49.324;8.694;2022-12-07T07:18:13;99886.09;;;2.65;100.00
38716;BME280;24833;49.324;8.694;2022-12-07T07:20:40;99890.41;;;2.66;100.00
38716;BME280;24833;49.324;8.694;2022-12-07T07:23:07;99898.16;;;2.67;100.00
38716;BME280;24833;49.324;8.694;2022-12-07T07:25:34;99892.06;;;2.67;100.00
38716;BME280;24833;49.324;8.694;2022-12-07T07:28:02;99901.66;;;2.68;100.00
38716;BME280;24833;49.324;8.694;2022-12-07T07:30:29;99899.03;;;2.68;100.00
38716;BME280;24833;49.324;8.694;2022-12-07T07:33:05;99895.53;;;2.67;100.00
38716;BME280;24833;49.324;8.694;2022-12-07T07:35:34;99897.34;;;2.67;100.00
38716;BME280;24833;49.324;8.694;2022-12-07T07:38:01;99901.66;;;2.68;100.00
38716;BME280;24833;49.324;8.694;2022-12-07T07:40:29;99897.22;;;2.68;100.00
38716;BME280;24833;49.324;8.694;2022-12-07T07:42:56;99907.59;;;2.70;100.00
38716;BME280;24833;49.324;8.694;2022-12-07T07:45:25;99898.88;;;2.69;100.00
38716;BME280;24833;49.324;8.694;2022-12-07T07:47:53;99903.16;;;2.70;100.00
38716;BME280;24833;49.324;8.694;2022-12-07T07:50:20;99904.00;;;2.71;100.00
38716;BME280;24833;49.324;8.694;2022-12-07T07:52:47;99904.81;;;2.71;100.00
38716;BME280;24833;49.324;8.694;2022-12-07T07:55:14;99908.44;;;2.70;100.00
38716;BME280;24833;49.324;8.694;2022-12-07T07:57:44;99912.88;;;2.70;100.00
38716;BME280;24833;49.324;8.694;2022-12-07T08:00:19;99910.94;;;2.72;100.00
38716;BME280;24833;49.324;8.694;2022-12-07T08:02:46;99912.59;;;2.73;100.00
38716;BME280;24833;49.324;8.694;2022-12-07T08:05:13;99909.81;;;2.75;100.00
38716;BME280;24833;49.324;8.694;2022-12-07T08:07:41;99920.22;;;2.76;100.00
38716;BME280;24833;49.324;8.694;2022-12-07T08:10:12;99923.69;;;2.77;100.00
38716;BME280;24833;49.324;8.694;2022-12-07T08:12:40;99922.88;;;2.76;100.00
38716;BME280;24833;49.324;8.694;2022-12-07T08:15:30;99920.38;;;2.75;100.00
38716;BME280;24833;49.324;8.694;2022-12-07T08:17:58;99925.50;;;2.76;100.00
38716;BME280;24833;49.324;8.694;2022-12-07T08:20:25;99924.53;;;2.77;100.00
38716;BME280;24833;49.324;8.694;2022-12-07T08:22:53;99927.00;;;2.79;100.00
38716;BME280;24833;49.324;8.694;2022-12-07T08:25:20;99925.06;;;2.81;100.00
38716;BME280;24833;49.324;8.694;2022-12-07T08:27:50;99931.19;;;2.81;100.00
38716;BME280;24833;49.324;8.694;2022-12-07T08:30:17;99924.78;;;2.84;100.00
38716;BME280;24833;49.324;8.694;2022-12-07T08:32:46;99922.81;;;2.86;100.00
38716;BME280;24833;49.324;8.694;2022-12-07T08:35:14;99924.22;;;2.90;100.00
38716;BME280;24833;49.324;8.694;2022-12-07T08:37:41;99924.75;;;2.93;100.00
38716;BME280;24833;49.324;8.694;2022-12-07T08:40:10;99929.75;;;2.96;100.00
38716;BME280;24833;49.324;8.694;2022-12-07T08:42:38;99925.00;;;3.00;100.00
38716;BME280;24833;49.324;8.694;2022-12-07T08:45:10;99918.63;;;3.03;100.00
38716;BME280;24833;49.324;8.694;2022-12-07T08:47:42;99917.50;;;3.05;100.00
38716;BME280;24833;49.324;8.694;2022-12-07T08:50:10;99918.06;;;3.09;100.00
38716;BME280;24833;49.324;8.694;2022-12-07T08:52:39;99916.09;;;3.11;100.00
38716;BME280;24833;49.324;8.694;2022-12-07T08:55:10;99921.06;;;3.14;100.00
38716;BME280;24833;49.324;8.694;2022-12-07T08:57:39;99924.44;;;3.16;100.00
38716;BME280;24833;49.324;8.694;2022-12-07T09:00:07;99922.63;;;3.16;100.00
38716;BME280;24833;49.324;8.694;2022-12-07T09:02:35;99926.09;;;3.17;100.00
38716;BME280;24833;49.324;8.694;2022-12-07T09:05:02;99925.09;;;3.18;100.00
38716;BME280;24833;49.324;8.694;2022-12-07T09:07:30;99929.41;;;3.19;100.00
38716;BME280;24833;49.324;8.694;2022-12-07T09:09:58;99934.66;;;3.19;100.00
38716;BME280;24833;49.324;8.694;2022-12-07T09:12:26;99937.31;;;3.19;100.00
38716;BME280;24833;49.324;8.694;2022-12-07T09:14:53;99934.41;;;3.22;100.00
38716;BME280;24833;49.324;8.694;2022-12-07T09:17:20;99933.56;;;3.21;100.00
38716;BME280;24833;49.324;8.694;2022-12-07T09:19:47;99937.88;;;3.22;100.00
38716;BME280;24833;49.324;8.694;2022-12-07T09:22:14;99939.69;;;3.22;100.00
38716;BME280;24833;49.324;8.694;2022-12-07T09:24:41;99935.50;;;3.19;100.00
38716;BME280;24833;49.324;8.694;2022-12-07T09:27:08;99937.47;;;3.17;100.00
38716;BME280;24833;49.324;8.694;2022-12-07T09:29:35;99943.88;;;3.15;100.00
38716;BME280;24833;49.324;8.694;2022-12-07T09:32:02;99937.72;;;3.14;100.00
38716;BME280;24833;49.324;8.694;2022-12-07T09:34:37;99938.72;;;3.13;100.00
38716;BME280;24833;49.324;8.694;2022-12-07T09:37:04;99934.25;;;3.14;100.00
38716;BME280;24833;49.324;8.694;2022-12-07T09:39:31;99930.94;;;3.12;100.00
38716;BME280;24833;49.324;8.694;2022-12-07T09:41:59;99933.59;;;3.12;100.00
38716;BME280;24833;49.324;8.694;2022-12-07T09:44:30;99934.25;;;3.14;100.00
38716;BME280;24833;49.324;8.694;2022-12-07T09:46:58;99933.31;;;3.15;100.00
38716;BME280;24833;49.324;8.694;2022-12-07T09:49:30;99927.06;;;3.16;100.00
38716;BME280;24833;49.324;8.694;2022-12-07T09:52:27;99926.91;;;3.17;100.00
38716;BME280;24833;49.324;8.694;2022-12-07T09:55:03;99929.41;;;3.19;100.00
38716;BME280;24833;49.324;8.694;2022-12-07T09:57:32;99924.13;;;3.19;100.00
38716;BME280;24833;49.324;8.694;2022-12-07T10:00:07;99924.94;;;3.19;100.00
38716;BME280;24833;49.324;8.694;2022-12-07T10:02:44;99925.66;;;3.21;100.00
38716;BME280;24833;49.324;8.694;2022-12-07T10:05:18;99922.03;;;3.22;100.00
38716;BME280;24833;49.324;8.694;2022-12-07T10:07:50;99919.41;;;3.22;100.00
38716;BME280;24833;49.324;8.694;2022-12-07T10:10:34;99914.94;;;3.23;100.00
38716;BME280;24833;49.324;8.694;2022-12-07T10:13:11;99920.91;;;3.25;100.00
38716;BME280;24833;49.324;8.694;2022-12-07T10:18:36;99911.03;;;3.27;100.00
38716;BME280;24833;49.324;8.694;2022-12-07T10:21:15;99912.72;;;3.28;100.00
38716;BME280;24833;49.324;8.694;2022-12-07T10:24:05;99909.09;;;3.29;100.00
38716;BME280;24833;49.324;8.694;2022-12-07T10:26:51;99905.47;;;3.30;100.00
38716;BME280;24833;49.324;8.694;2022-12-07T10:29:36;99904.34;;;3.33;100.00
38716;BME280;24833;49.324;8.694;2022-12-07T10:32:25;99904.34;;;3.33;100.00
38716;BME280;24833;49.324;8.694;2022-12-07T10:35:29;99900.44;;;3.37;100.00
38716;BME280;24833;49.324;8.694;2022-12-07T10:37:59;99900.13;;;3.40;100.00
38716;BME280;24833;49.324;8.694;2022-12-07T10:40:32;99893.88;;;3.41;100.00
38716;BME280;24833;49.324;8.694;2022-12-07T10:43:02;99890.97;;;3.44;100.00
38716;BME280;24833;49.324;8.694;2022-12-07T10:45:30;99882.91;;;3.45;100.00
38716;BME280;24833;49.324;8.694;2022-12-07T10:57:47;99883.38;;;3.59;100.00
38716;BME280;24833;49.324;8.694;2022-12-07T11:00:25;99885.03;;;3.60;100.00
38716;BME280;24833;49.324;8.694;2022-12-07T11:06:33;99881.13;;;3.64;100.00
38716;BME280;24833;49.324;8.694;2022-12-07T11:09:41;99877.50;;;3.65;100.00
38716;BME280;24833;49.324;8.694;2022-12-07T11:28:21;99861.16;;;3.79;100.00
38716;BME280;24833;49.324;8.694;2022-12-07T11:37:35;99840.84;;;3.79;100.00
38716;BME280;24833;49.324;8.694;2022-12-07T11:40:33;99839.75;;;3.82;100.00
38716;BME280;24833;49.324;8.694;2022-12-07T11:43:26;99832.78;;;3.81;100.00
38716;BME280;24833;49.324;8.694;2022-12-07T11:46:15;99828.19;;;3.83;100.00
38716;BME280;24833;49.324;8.694;2022-12-07T11:48:50;99836.78;;;3.85;100.00
38716;BME280;24833;49.324;8.694;2022-12-07T11:51:22;99831.22;;;3.88;100.00
38716;BME280;24833;49.324;8.694;2022-12-07T11:53:57;99828.41;;;3.90;100.00
38716;BME280;24833;49.324;8.694;2022-12-07T11:56:30;99835.03;;;3.94;100.00
38716;BME280;24833;49.324;8.694;2022-12-07T11:59:25;99831.13;;;3.98;100.00
38716;BME280;24833;49.324;8.694;2022-12-07T12:02:15;99828.31;;;3.99;100.00
38716;BME280;24833;49.324;8.694;2022-12-07T12:07:33;99812.19;;;4.02;100.00
38716;BME280;24833;49.324;8.694;2022-12-07T12:11:08;99815.50;;;4.04;100.00
38716;BME280;24833;49.324;8.694;2022-12-07T12:23:16;99805.75;;;4.05;100.00
38716;BME280;24833;49.324;8.694;2022-12-07T12:25:57;99803.28;;;4.03;100.00
38716;BME280;24833;49.324;8.694;2022-12-07T12:33:51;99789.25;;;4.03;100.00
38716;BME280;24833;49.324;8.694;2022-12-07T12:39:17;99796.84;;;4.06;100.00
38716;BME280;24833;49.324;8.694;2022-12-07T12:47:37;99786.03;;;4.17;100.00
38716;BME280;24833;49.324;8.694;2022-12-07T12:50:19;99783.63;;;4.24;100.00
38716;BME280;24833;49.324;8.694;2022-12-07T12:53:17;99783.00;;;4.30;100.00
38716;BME280;24833;49.324;8.694;2022-12-07T12:56:16;99784.03;;;4.37;100.00
38716;BME280;24833;49.324;8.694;2022-12-07T13:01:49;99776.69;;;4.49;100.00
38716;BME280;24833;49.324;8.694;2022-12-07T13:04:23;99775.53;;;4.51;100.00
38716;BME280;24833;49.324;8.694;2022-12-07T13:06:51;99768.25;;;4.53;100.00
38716;BME280;24833;49.324;8.694;2022-12-07T13:09:28;99776.19;;;4.53;100.00
38716;BME280;24833;49.324;8.694;2022-12-07T13:12:05;99768.78;;;4.57;100.00
38716;BME280;24833;49.324;8.694;2022-12-07T13:17:11;99761.69;;;4.57;100.00
38716;BME280;24833;49.324;8.694;2022-12-07T13:28:17;99754.22;;;4.53;100.00
38716;BME280;24833;49.324;8.694;2022-12-07T13:31:11;99748.09;;;4.52;100.00
38716;BME280;24833;49.324;8.694;2022-12-07T13:33:44;99751.72;;;4.51;100.00
38716;BME280;24833;49.324;8.694;2022-12-07T13:36:38;99746.44;;;4.51;100.00
38716;BME280;24833;49.324;8.694;2022-12-07T13:41:42;99746.78;;;4.48;100.00
38716;BME280;24833;49.324;8.694;2022-12-07T13:44:13;99747.06;;;4.45;100.00
38716;BME280;24833;49.324;8.694;2022-12-07T13:47:09;99743.59;;;4.45;100.00
38716;BME280;24833;49.324;8.694;2022-12-07T13:49:51;99751.84;;;4.42;100.00
38716;BME280;24833;49.324;8.694;2022-12-07T13:52:29;99742.41;;;4.39;100.00
38716;BME280;24833;49.324;8.694;2022-12-07T13:54:58;99738.94;;;4.38;100.00
38716;BME280;24833;49.324;8.694;2022-12-07T13:57:28;99744.22;;;4.38;100.00
38716;BME280;24833;49.324;8.694;2022-12-07T13:59:57;99744.22;;;4.38;100.00
38716;BME280;24833;49.324;8.694;2022-12-07T14:02:31;99740.09;;;4.36;100.00
38716;BME280;24833;49.324;8.694;2022-12-07T14:05:24;99730.34;;;4.36;100.00
38716;BME280;24833;49.324;8.694;2022-12-07T14:08:03;99720.91;;;4.34;100.00
38716;BME280;24833;49.324;8.694;2022-12-07T14:10:52;99730.63;;;4.33;100.00
38716;BME280;24833;49.324;8.694;2022-12-07T14:16:33;99735.78;;;4.35;100.00
38716;BME280;24833;49.324;8.694;2022-12-07T14:19:38;99736.75;;;4.34;100.00
38716;BME280;24833;49.324;8.694;2022-12-07T14:22:08;99737.75;;;4.33;100.00
38716;BME280;24833;49.324;8.694;2022-12-07T14:24:42;99740.22;;;4.34;100.00
38716;BME280;24833;49.324;8.694;2022-12-07T14:27:22;99732.47;;;4.33;100.00
38716;BME280;24833;49.324;8.694;2022-12-07T14:29:52;99727.16;;;4.33;100.00
38716;BME280;24833;49.324;8.694;2022-12-07T14:32:26;99726.34;;;4.32;100.00
38716;BME280;24833;49.324;8.694;2022-12-07T14:35:12;99733.44;;;4.32;100.00
38716;BME280;24833;49.324;8.694;2022-12-07T14:37:42;99727.34;;;4.31;100.00
38716;BME280;24833;49.324;8.694;2022-12-07T14:40:16;99728.16;;;4.32;100.00
38716;BME280;24833;49.324;8.694;2022-12-07T14:42:45;99731.78;;;4.31;100.00
38716;BME280;24833;49.324;8.694;2022-12-07T14:45:17;99730.13;;;4.30;100.00
38716;BME280;24833;49.324;8.694;2022-12-07T14:47:45;99720.41;;;4.30;100.00
38716;BME280;24833;49.324;8.694;2022-12-07T14:50:40;99723.19;;;4.29;100.00
38716;BME280;24833;49.324;8.694;2022-12-07T14:53:35;99727.78;;;4.27;100.00
38716;BME280;24833;49.324;8.694;2022-12-07T14:56:04;99727.78;;;4.27;100.00
38716;BME280;24833;49.324;8.694;2022-12-07T14:58:35;99729.44;;;4.28;100.00
38716;BME280;24833;49.324;8.694;2022-12-07T15:01:02;99720.03;;;4.25;100.00
38716;BME280;24833;49.324;8.694;2022-12-07T15:03:29;99720.84;;;4.26;100.00
38716;BME280;24833;49.324;8.694;2022-12-07T15:06:01;99722.66;;;4.25;100.00
38716;BME280;24833;49.324;8.694;2022-12-07T15:08:28;99725.47;;;4.24;100.00
38716;BME280;24833;49.324;8.694;2022-12-07T15:10:55;99723.81;;;4.23;100.00
38716;BME280;24833;49.324;8.694;2022-12-07T15:13:22;99715.19;;;4.21;100.00